Time;durP1;ratioP1;P1;durP2;ratioP2;P2;SDS_P1;SDS_P2;PMS_P1;PMS_P2;Temp;Humidity;BMP_temperature;BMP_pressure;BME280_temperature;BME280_humidity;BME280_pressure;Samples;Min_cycle;Max_cycle;Signal;HPM_P1;HPM_P2
2023/08/21 00:01:21;;;;;;;4.43;1.20;;;14.70;99.90;;;;;;5053929;28;20084;-74
2023/08/21 00:03:47;;;;;;;2.65;1.05;;;14.60;99.90;;;;;;5053942;28;20048;-74
2023/08/21 00:06:12;;;;;;;2.88;1.00;;;14.50;99.90;;;;;;5053796;28;20044;-74
2023/08/21 00:08:38;;;;;;;7.70;1.10;;;14.60;99.90;;;;;;5053717;28;20048;-74
2023/08/21 00:11:04;;;;;;;3.20;1.30;;;14.70;99.90;;;;;;5037099;28;20355;-73
2023/08/21 00:13:29;;;;;;;3.85;1.15;;;14.70;99.90;;;;;;5036262;28;20170;-74
2023/08/21 00:15:55;;;;;;;2.90;1.30;;;14.60;99.90;;;;;;5053678;28;20084;-74
2023/08/21 00:18:21;;;;;;;4.60;1.38;;;14.60;99.90;;;;;;5053298;28;20056;-73
2023/08/21 00:20:47;;;;;;;2.80;1.50;;;14.60;99.90;;;;;;5053593;28;20139;-73
2023/08/21 00:23:13;;;;;;;3.42;1.45;;;14.50;99.90;;;;;;5035770;28;20128;-73
2023/08/21 00:25:38;;;;;;;3.17;1.50;;;14.50;99.90;;;;;;5054193;28;20163;-73
2023/08/21 00:28:04;;;;;;;3.08;1.90;;;14.40;99.90;;;;;;5053535;28;20043;-73
2023/08/21 00:30:30;;;;;;;3.92;1.85;;;14.40;99.90;;;;;;5053465;28;20135;-73
2023/08/21 00:32:56;;;;;;;4.38;1.80;;;14.40;99.90;;;;;;5052987;28;20120;-73
2023/08/21 00:35:21;;;;;;;2.47;1.88;;;14.40;99.90;;;;;;5053476;28;20049;-74
2023/08/21 00:37:47;;;;;;;2.72;1.38;;;14.40;99.90;;;;;;5053424;28;20367;-74
2023/08/21 00:40:13;;;;;;;3.88;1.88;;;14.30;99.90;;;;;;5053464;28;20049;-74
2023/08/21 00:42:39;;;;;;;2.03;1.15;;;14.10;99.90;;;;;;5053414;28;20045;-74
2023/08/21 00:45:08;;;;;;;3.03;1.13;;;14.10;99.90;;;;;;5053418;28;20043;-74
2023/08/21 00:47:34;;;;;;;2.40;1.27;;;14.00;99.90;;;;;;5052156;28;20456;-74
2023/08/21 00:50:01;;;;;;;3.17;1.10;;;14.00;99.90;;;;;;5053324;28;20056;-74
2023/08/21 00:52:28;;;;;;;2.20;1.40;;;14.00;99.90;;;;;;5053104;28;20053;-74
2023/08/21 00:54:55;;;;;;;8.52;1.60;;;14.00;99.90;;;;;;5053230;28;20120;-74
2023/08/21 00:57:22;;;;;;;3.80;1.33;;;14.00;99.90;;;;;;5035454;28;20120;-74
2023/08/21 00:59:48;;;;;;;1.85;1.00;;;14.00;99.90;;;;;;5054063;28;20040;-74
2023/08/21 01:02:14;;;;;;;4.68;1.52;;;14.00;99.90;;;;;;5053186;28;20045;-74
2023/08/21 01:04:40;;;;;;;10.10;1.75;;;14.00;99.90;;;;;;5036004;28;20486;-74
2023/08/21 01:07:09;;;;;;;2.22;1.38;;;14.00;99.90;;;;;;5053139;28;20044;-74
2023/08/21 01:10:15;;;;;;;2.78;1.20;;;14.00;99.90;;;;;;5054497;28;20037;-74
2023/08/21 01:13:06;;;;;;;4.55;1.10;;;14.00;99.90;;;;;;4956901;29;20054;-74
2023/08/21 01:15:32;;;;;;;3.25;1.40;;;13.90;99.90;;;;;;5057695;28;20128;-74
2023/08/21 01:17:59;;;;;;;3.17;1.40;;;13.90;99.90;;;;;;5056786;28;20080;-74
2023/08/21 01:20:25;;;;;;;4.45;1.58;;;14.00;99.90;;;;;;5056577;28;20498;-74
2023/08/21 01:22:51;;;;;;;3.42;1.40;;;14.00;99.90;;;;;;5040074;28;20056;-75
2023/08/21 01:25:17;;;;;;;3.20;1.50;;;14.00;99.90;;;;;;5057423;28;20049;-74
2023/08/21 01:27:47;;;;;;;4.45;1.67;;;14.00;99.90;;;;;;5057318;28;20147;-74
2023/08/21 01:30:13;;;;;;;4.10;1.60;;;14.10;99.90;;;;;;5057553;28;20183;-75
2023/08/21 01:32:59;;;;;;;4.15;1.40;;;14.10;99.90;;;;;;5039691;28;20131;-75
2023/08/21 01:35:26;;;;;;;3.53;1.50;;;14.10;99.90;;;;;;5056426;28;20506;-75
2023/08/21 01:37:52;;;;;;;2.03;1.15;;;14.20;99.90;;;;;;5056912;28;20094;-74
2023/08/21 01:40:24;;;;;;;4.47;1.48;;;14.10;99.90;;;;;;5056556;28;20056;-74
2023/08/21 01:42:52;;;;;;;13.60;1.30;;;14.10;99.90;;;;;;5056482;28;20048;-75
2023/08/21 01:45:18;;;;;;;7.15;1.20;;;14.00;99.90;;;;;;5056464;28;20123;-74
2023/08/21 01:47:43;;;;;;;9.65;1.27;;;13.90;99.90;;;;;;5038522;28;20048;-74
2023/08/21 01:50:09;;;;;;;2.70;0.82;;;13.80;99.90;;;;;;5056558;28;20467;-74
2023/08/21 01:52:35;;;;;;;2.05;0.80;;;13.70;99.90;;;;;;5038734;28;20044;-75
2023/08/21 01:55:01;;;;;;;2.40;0.90;;;13.70;99.90;;;;;;5039052;28;20088;-74
2023/08/21 01:57:26;;;;;;;5.65;1.13;;;13.70;99.90;;;;;;5038496;28;20049;-74
2023/08/21 01:59:52;;;;;;;1.10;0.70;;;13.60;99.90;;;;;;5038632;28;20080;-74
2023/08/21 02:02:18;;;;;;;4.35;1.52;;;13.60;99.90;;;;;;5056239;28;20163;-74
2023/08/21 02:04:43;;;;;;;3.70;1.48;;;13.60;99.90;;;;;;5056156;28;20144;-74
2023/08/21 02:07:09;;;;;;;3.53;1.92;;;13.50;99.90;;;;;;5056024;28;20049;-75
2023/08/21 02:09:35;;;;;;;1.95;1.15;;;13.40;99.90;;;;;;5057240;28;20374;-74
2023/08/21 02:12:00;;;;;;;4.60;1.27;;;13.40;99.90;;;;;;5055758;28;20064;-75
2023/08/21 02:14:26;;;;;;;4.20;1.20;;;13.40;99.90;;;;;;5056488;28;20092;-74
2023/08/21 02:16:52;;;;;;;5.55;1.20;;;13.40;99.90;;;;;;5038191;28;20381;-74
2023/08/21 02:19:17;;;;;;;2.28;1.00;;;13.30;99.90;;;;;;5055652;28;20485;-75
2023/08/21 02:21:43;;;;;;;2.55;1.20;;;13.30;99.90;;;;;;5055103;28;20059;-75
2023/08/21 02:24:09;;;;;;;2.95;0.90;;;13.30;99.90;;;;;;5055770;28;20111;-75
2023/08/21 02:26:34;;;;;;;3.25;1.30;;;13.40;99.90;;;;;;5055737;28;20056;-74
2023/08/21 02:29:00;;;;;;;2.08;1.10;;;13.40;99.90;;;;;;5055615;28;20041;-75
2023/08/21 02:31:26;;;;;;;3.08;1.33;;;13.50;99.90;;;;;;5056138;28;20179;-75
2023/08/21 02:33:51;;;;;;;2.92;1.20;;;13.60;99.90;;;;;;5055607;28;20041;-75
2023/08/21 02:36:17;;;;;;;2.05;1.00;;;13.70;99.90;;;;;;5055540;28;20056;-75
2023/08/21 02:38:43;;;;;;;3.45;1.25;;;13.70;99.90;;;;;;5055535;28;20482;-75
2023/08/21 02:41:08;;;;;;;4.55;1.30;;;13.70;99.90;;;;;;5055134;28;20049;-75
2023/08/21 02:43:34;;;;;;;1.55;0.80;;;13.70;99.90;;;;;;5037929;28;20136;-75
2023/08/21 02:46:00;;;;;;;1.10;0.70;;;13.60;99.90;;;;;;5056118;28;20128;-75
2023/08/21 02:48:26;;;;;;;4.40;1.13;;;13.60;99.90;;;;;;5055069;28;20037;-74
2023/08/21 02:50:51;;;;;;;4.63;0.93;;;13.50;99.90;;;;;;5037654;28;20067;-75
2023/08/21 02:53:17;;;;;;;22.50;2.20;;;13.40;99.90;;;;;;5055748;28;20056;-75
2023/08/21 02:55:43;;;;;;;3.88;1.10;;;13.30;99.90;;;;;;5037270;28;20128;-75
2023/08/21 02:58:09;;;;;;;1.95;0.80;;;13.30;99.90;;;;;;5055612;28;20041;-75
2023/08/21 03:00:35;;;;;;;2.15;0.90;;;13.20;99.90;;;;;;5038069;28;20052;-75
2023/08/21 03:03:01;;;;;;;1.90;1.17;;;13.20;99.90;;;;;;5037157;28;20114;-75
2023/08/21 03:05:26;;;;;;;2.78;1.30;;;13.20;99.90;;;;;;5055469;28;20462;-75
2023/08/21 03:07:52;;;;;;;2.35;1.20;;;13.30;99.90;;;;;;5054876;28;20457;-75
2023/08/21 03:10:19;;;;;;;3.00;0.80;;;13.30;99.90;;;;;;5054948;28;20128;-75
2023/08/21 03:12:44;;;;;;;1.90;0.98;;;13.20;99.90;;;;;;5054627;28;20057;-75
2023/08/21 03:15:10;;;;;;;16.13;2.08;;;13.10;99.90;;;;;;5054818;28;20049;-75
2023/08/21 03:17:36;;;;;;;8.15;1.20;;;13.10;99.90;;;;;;5055223;28;20048;-75
2023/08/21 03:20:04;;;;;;;1.27;0.70;;;13.10;99.90;;;;;;5054668;28;20508;-74
2023/08/21 03:22:31;;;;;;;2.33;0.77;;;13.00;99.90;;;;;;5054650;28;20085;-74
2023/08/21 03:24:57;;;;;;;3.25;1.10;;;13.00;99.90;;;;;;5055044;28;20041;-74
2023/08/21 03:27:24;;;;;;;2.15;1.10;;;13.00;99.90;;;;;;5054508;28;20056;-75
2023/08/21 03:29:50;;;;;;;2.17;1.08;;;13.20;99.90;;;;;;5054722;28;20049;-75
2023/08/21 03:32:18;;;;;;;3.35;1.20;;;13.20;99.90;;;;;;5053978;28;20524;-74
2023/08/21 03:34:44;;;;;;;5.32;1.23;;;13.20;99.90;;;;;;5053826;28;20045;-74
2023/08/21 03:37:10;;;;;;;2.80;0.60;;;13.10;99.90;;;;;;5036909;28;20095;-74
2023/08/21 03:39:36;;;;;;;2.20;0.90;;;13.10;99.90;;;;;;5054349;28;20092;-75
2023/08/21 03:42:02;;;;;;;1.80;0.98;;;13.10;99.90;;;;;;5054288;28;20092;-75
2023/08/21 03:44:27;;;;;;;2.55;1.00;;;13.00;99.90;;;;;;5054248;28;20147;-74
2023/08/21 03:46:53;;;;;;;1.83;0.70;;;13.00;99.90;;;;;;5054124;28;20103;-72
2023/08/21 03:49:19;;;;;;;1.20;0.70;;;13.00;99.90;;;;;;5054428;28;20045;-75
2023/08/21 03:51:45;;;;;;;1.52;0.80;;;13.00;99.90;;;;;;5054842;28;20459;-75
2023/08/21 03:54:11;;;;;;;1.40;0.60;;;12.90;99.90;;;;;;5054014;28;20132;-74
2023/08/21 03:56:37;;;;;;;1.20;0.50;;;13.00;99.90;;;;;;5054025;28;20048;-75
2023/08/21 03:59:02;;;;;;;1.88;0.60;;;13.00;99.90;;;;;;5036605;28;20052;-75
2023/08/21 04:01:28;;;;;;;2.72;1.10;;;13.00;99.90;;;;;;5053939;28;20493;-75
2023/08/21 04:03:54;;;;;;;2.78;0.90;;;13.00;99.90;;;;;;5036093;28;20440;-75
2023/08/21 04:06:20;;;;;;;4.85;0.90;;;13.00;99.90;;;;;;5053838;28;20056;-75
2023/08/21 04:08:46;;;;;;;2.38;0.80;;;12.90;99.90;;;;;;5036241;28;20474;-74
2023/08/21 04:11:12;;;;;;;1.15;0.60;;;12.80;99.90;;;;;;5054289;28;20045;-74
2023/08/21 04:13:37;;;;;;;2.15;0.65;;;12.70;99.90;;;;;;5035975;28;20051;-75
2023/08/21 04:16:03;;;;;;;60.00;4.28;;;12.60;99.90;;;;;;5054484;28;20037;-75
2023/08/21 04:18:29;;;;;;;13.18;1.70;;;12.50;99.90;;;;;;5053414;28;20048;-75
2023/08/21 04:20:54;;;;;;;3.25;1.10;;;12.50;99.90;;;;;;5053592;28;20057;-75
2023/08/21 04:23:20;;;;;;;3.80;1.30;;;12.40;99.90;;;;;;5052459;28;20051;-74
2023/08/21 04:25:46;;;;;;;2.10;1.10;;;12.50;99.90;;;;;;5053499;28;20486;-74
2023/08/21 04:28:12;;;;;;;6.35;1.10;;;12.60;99.90;;;;;;5053927;28;20417;-75
2023/08/21 04:30:41;;;;;;;2.40;0.85;;;12.70;99.90;;;;;;5053392;28;20045;-75
2023/08/21 04:33:06;;;;;;;2.30;0.90;;;12.80;99.90;;;;;;5053416;28;20489;-75
2023/08/21 04:35:39;;;;;;;1.88;0.80;;;12.80;99.90;;;;;;5053529;28;20099;-75
2023/08/21 04:38:05;;;;;;;1.05;0.68;;;12.80;99.90;;;;;;5036488;28;20055;-75
2023/08/21 04:40:30;;;;;;;3.65;0.70;;;12.80;99.90;;;;;;5053062;28;20045;-75
2023/08/21 04:42:56;;;;;;;30.90;2.40;;;12.80;99.90;;;;;;5053962;28;20045;-75
2023/08/21 04:45:22;;;;;;;2.00;0.73;;;12.80;99.90;;;;;;5038593;28;20425;-75
2023/08/21 04:47:47;;;;;;;6.68;1.10;;;12.80;99.90;;;;;;5057058;28;20041;-75
2023/08/21 04:50:15;;;;;;;1.70;0.60;;;12.80;99.90;;;;;;5039646;28;20045;-75
2023/08/21 04:52:41;;;;;;;1.40;0.73;;;12.70;99.90;;;;;;5058235;28;20394;-75
2023/08/21 04:55:07;;;;;;;1.58;0.70;;;12.70;99.90;;;;;;5057412;28;20045;-75
2023/08/21 04:57:32;;;;;;;1.00;0.63;;;12.80;99.90;;;;;;5039741;28;20053;-75
2023/08/21 04:59:58;;;;;;;0.93;0.60;;;12.80;99.90;;;;;;5057226;28;20045;-75
2023/08/21 05:02:24;;;;;;;1.48;0.60;;;12.90;99.90;;;;;;5057212;28;20049;-75
2023/08/21 05:04:50;;;;;;;1.30;0.60;;;13.00;99.90;;;;;;5058113;28;20059;-75
2023/08/21 05:07:15;;;;;;;0.88;0.57;;;13.10;99.90;;;;;;5057504;28;20425;-75
2023/08/21 05:09:41;;;;;;;1.40;0.60;;;13.10;99.90;;;;;;5057125;28;20049;-75
2023/08/21 05:12:08;;;;;;;1.55;0.80;;;13.20;99.90;;;;;;5057085;28;20088;-75
2023/08/21 05:14:33;;;;;;;1.27;0.68;;;13.30;99.90;;;;;;5057573;28;20094;-75
2023/08/21 05:16:59;;;;;;;1.35;0.68;;;13.30;99.90;;;;;;5057027;28;20053;-75
2023/08/21 05:19:24;;;;;;;2.55;0.82;;;13.40;99.90;;;;;;5056852;28;20055;-75
2023/08/21 05:21:50;;;;;;;3.17;1.08;;;13.50;99.90;;;;;;5056910;28;20053;-75
2023/08/21 05:24:16;;;;;;;3.20;0.90;;;13.50;99.90;;;;;;5056956;28;20056;-75
2023/08/21 05:26:41;;;;;;;1.88;0.90;;;13.60;99.90;;;;;;5038928;28;20040;-75
2023/08/21 05:29:07;;;;;;;3.00;1.20;;;13.70;99.90;;;;;;5056974;28;20102;-75
2023/08/21 05:31:33;;;;;;;2.10;1.05;;;13.80;99.90;;;;;;5056598;28;20124;-75
2023/08/21 05:33:59;;;;;;;3.15;1.20;;;13.90;99.90;;;;;;5056673;28;20531;-75
2023/08/21 05:36:25;;;;;;;3.55;1.20;;;14.00;99.90;;;;;;5056627;28;20123;-75
2023/08/21 05:38:51;;;;;;;2.67;1.35;;;14.10;99.90;;;;;;5055631;28;20095;-75
2023/08/21 05:41:17;;;;;;;2.50;1.25;;;14.20;99.90;;;;;;5056491;28;20041;-74
2023/08/21 05:43:43;;;;;;;3.40;1.40;;;14.30;99.90;;;;;;5056497;28;20048;-75
2023/08/21 05:46:08;;;;;;;2.58;1.30;;;14.40;99.90;;;;;;5056646;28;20052;-75
2023/08/21 05:48:35;;;;;;;2.63;1.42;;;14.50;99.90;;;;;;5056501;28;20485;-72
2023/08/21 05:51:00;;;;;;;2.75;1.20;;;14.60;99.90;;;;;;5056424;28;20045;-76
2023/08/21 05:53:26;;;;;;;3.30;1.38;;;14.80;99.90;;;;;;5056381;28;20060;-77
2023/08/21 05:55:53;;;;;;;2.60;1.40;;;14.90;99.90;;;;;;5054537;28;20128;-76
2023/08/21 05:58:19;;;;;;;4.28;1.52;;;15.10;99.90;;;;;;5057038;28;20056;-77
2023/08/21 06:00:47;;;;;;;3.75;1.60;;;15.20;99.90;;;;;;5056191;28;20045;-76
2023/08/21 06:03:12;;;;;;;2.42;1.40;;;15.30;99.90;;;;;;5056175;28;20045;-75
2023/08/21 06:05:38;;;;;;;5.95;1.30;;;15.40;99.90;;;;;;5056104;28;20051;-76
2023/08/21 06:08:04;;;;;;;3.40;1.50;;;15.60;99.90;;;;;;5055908;28;20049;-76
2023/08/21 06:10:31;;;;;;;3.35;1.38;;;15.70;99.90;;;;;;5056038;28;20048;-76
2023/08/21 06:12:57;;;;;;;3.85;1.38;;;15.80;99.90;;;;;;5056007;28;20127;-77
2023/08/21 06:15:22;;;;;;;3.72;1.50;;;16.00;99.90;;;;;;5056017;28;20132;-76
2023/08/21 06:17:48;;;;;;;2.53;1.30;;;16.10;99.90;;;;;;5037997;28;20060;-68
2023/08/21 06:20:14;;;;;;;3.53;1.42;;;16.20;99.90;;;;;;5056512;28;20067;-68
2023/08/21 06:22:40;;;;;;;4.40;1.83;;;16.30;99.90;;;;;;5056132;28;20057;-69
2023/08/21 06:25:06;;;;;;;2.50;1.42;;;16.40;99.90;;;;;;5055869;28;20041;-68
2023/08/21 06:27:31;;;;;;;4.15;2.17;;;16.60;99.90;;;;;;5056483;28;20198;-68
2023/08/21 06:29:57;;;;;;;4.13;1.90;;;16.70;99.90;;;;;;5038196;28;20078;-68
2023/08/21 06:32:23;;;;;;;3.75;1.60;;;16.80;99.90;;;;;;5055718;28;20044;-68
2023/08/21 06:34:49;;;;;;;4.00;1.48;;;16.90;99.90;;;;;;5055622;28;20052;-68
2023/08/21 06:37:14;;;;;;;3.85;1.63;;;17.10;99.90;;;;;;5055514;28;20037;-69
2023/08/21 06:39:40;;;;;;;3.47;1.50;;;17.20;99.90;;;;;;5055534;28;20056;-68
2023/08/21 06:42:06;;;;;;;5.60;1.67;;;17.20;99.90;;;;;;5055747;28;20044;-68
2023/08/21 06:44:31;;;;;;;5.18;2.25;;;17.40;99.90;;;;;;5055280;28;20048;-68
2023/08/21 06:46:57;;;;;;;4.18;1.70;;;17.50;99.90;;;;;;5056203;28;20446;-68
2023/08/21 06:49:23;;;;;;;4.88;2.08;;;17.60;99.90;;;;;;5037456;28;20045;-68
2023/08/21 06:51:49;;;;;;;3.30;1.75;;;17.70;99.90;;;;;;5055233;28;20501;-68
2023/08/21 06:54:15;;;;;;;4.78;1.60;;;17.80;99.90;;;;;;5055758;28;20421;-71
2023/08/21 06:56:41;;;;;;;4.50;1.80;;;17.90;99.90;;;;;;5055266;28;20055;-68
2023/08/21 06:59:07;;;;;;;3.10;1.63;;;18.00;99.90;;;;;;5054189;28;20079;-68
2023/08/21 07:01:33;;;;;;;4.28;1.60;;;18.10;99.90;;;;;;5037235;28;20470;-68
2023/08/21 07:03:58;;;;;;;2.55;1.52;;;18.20;99.90;;;;;;5055584;28;20043;-68
2023/08/21 07:06:24;;;;;;;3.70;1.50;;;18.30;99.90;;;;;;5054725;28;20404;-67
2023/08/21 07:08:50;;;;;;;3.88;1.80;;;18.40;99.90;;;;;;5037032;28;20059;-68
2023/08/21 07:11:17;;;;;;;3.40;1.83;;;18.40;99.90;;;;;;5037117;28;20136;-67
2023/08/21 07:13:43;;;;;;;2.80;1.67;;;18.50;99.90;;;;;;5054853;28;20045;-68
2023/08/21 07:16:08;;;;;;;3.55;2.03;;;18.60;99.90;;;;;;5054808;28;20140;-68
2023/08/21 07:18:35;;;;;;;4.82;1.75;;;18.60;99.90;;;;;;5017329;28;20084;-69
2023/08/21 07:21:03;;;;;;;5.28;1.98;;;18.80;99.90;;;;;;5035270;28;20049;-68
2023/08/21 07:23:29;;;;;;;3.72;1.60;;;18.90;99.90;;;;;;5034245;28;20448;-69
2023/08/21 07:25:54;;;;;;;4.10;1.80;;;19.00;99.90;;;;;;5034457;28;20137;-67
2023/08/21 07:28:20;;;;;;;3.88;1.65;;;19.10;99.90;;;;;;5034574;28;20120;-67
2023/08/21 07:30:46;;;;;;;2.88;1.30;;;19.20;99.90;;;;;;5035341;28;20045;-67
2023/08/21 07:33:11;;;;;;;2.42;1.40;;;19.20;99.90;;;;;;5033532;28;20045;-67
2023/08/21 07:35:37;;;;;;;3.50;1.42;;;19.30;99.90;;;;;;5033338;28;20045;-67
2023/08/21 07:38:03;;;;;;;6.45;1.98;;;19.40;99.90;;;;;;5034963;28;20037;-66
2023/08/21 07:40:29;;;;;;;5.43;1.77;;;19.50;99.90;;;;;;5034832;28;20045;-67
2023/08/21 07:42:55;;;;;;;5.40;1.80;;;19.60;99.90;;;;;;5034923;28;20084;-66
2023/08/21 07:45:21;;;;;;;4.97;1.77;;;19.70;99.90;;;;;;5034163;28;20128;-67
2023/08/21 07:47:46;;;;;;;3.85;1.60;;;19.80;99.90;;;;;;5034675;28;20128;-67
2023/08/21 07:50:14;;;;;;;3.00;1.20;;;19.90;99.90;;;;;;5034235;28;20094;-67
2023/08/21 07:52:40;;;;;;;4.43;1.10;;;20.00;99.90;;;;;;5034219;28;20103;-69
2023/08/21 07:55:06;;;;;;;2.30;1.15;;;20.00;99.90;;;;;;5034184;28;20124;-69
2023/08/21 07:57:32;;;;;;;3.35;0.95;;;20.10;99.90;;;;;;5032916;28;20050;-73
2023/08/21 07:59:58;;;;;;;4.30;1.30;;;20.20;99.90;;;;;;5034035;28;20055;-67
2023/08/21 08:02:24;;;;;;;2.58;1.00;;;20.30;99.90;;;;;;5032886;28;20085;-67
2023/08/21 08:04:50;;;;;;;3.92;1.08;;;20.40;99.90;;;;;;5033715;28;20546;-67
2023/08/21 08:07:15;;;;;;;3.17;1.00;;;20.50;99.90;;;;;;5034216;28;20051;-70
2023/08/21 08:09:41;;;;;;;3.10;1.10;;;20.60;99.90;;;;;;5034463;28;20037;-67
2023/08/21 08:12:07;;;;;;;2.67;1.00;;;20.70;99.90;;;;;;5032800;28;20406;-67
2023/08/21 08:14:32;;;;;;;3.65;1.23;;;20.80;99.90;;;;;;5033529;28;20049;-68
2023/08/21 08:16:58;;;;;;;3.35;1.00;;;20.80;99.90;;;;;;5032704;28;20050;-68
2023/08/21 08:19:24;;;;;;;3.60;1.00;;;20.90;99.90;;;;;;5045204;28;20061;-68
2023/08/21 08:21:50;;;;;;;2.08;0.98;;;21.00;99.90;;;;;;5054157;28;20068;-67
2023/08/21 08:24:15;;;;;;;4.53;1.23;;;21.10;99.90;;;;;;5053627;28;20080;-68
2023/08/21 08:26:42;;;;;;;2.88;1.10;;;21.20;99.90;;;;;;5035881;28;20155;-68
2023/08/21 08:29:09;;;;;;;1.80;0.80;;;21.30;99.90;;;;;;5053959;28;20084;-69
2023/08/21 08:31:34;;;;;;;2.60;0.75;;;21.30;99.90;;;;;;5053569;28;20405;-67
2023/08/21 08:34:00;;;;;;;2.72;1.00;;;21.30;99.90;;;;;;5035981;28;20136;-67
2023/08/21 08:36:26;;;;;;;3.20;0.90;;;21.30;99.90;;;;;;5053449;28;20049;-66
2023/08/21 08:38:52;;;;;;;2.17;1.00;;;21.30;99.90;;;;;;5053342;28;20052;-67
2023/08/21 08:41:53;;;;;;;1.27;0.77;;;21.40;99.90;;;;;;5053388;28;20045;-66
2023/08/21 08:44:19;;;;;;;3.47;1.00;;;21.60;99.90;;;;;;5036579;28;20044;-68
2023/08/21 08:46:45;;;;;;;3.10;1.00;;;21.70;99.90;;;;;;5035644;28;20041;-67
2023/08/21 08:49:12;;;;;;;3.17;1.00;;;21.90;99.90;;;;;;5053404;28;20434;-66
2023/08/21 08:51:39;;;;;;;4.10;0.90;;;22.00;99.90;;;;;;5053340;28;20056;-66
2023/08/21 08:54:06;;;;;;;3.15;1.00;;;22.20;99.90;;;;;;5053801;28;20466;-66
2023/08/21 08:56:32;;;;;;;2.63;0.80;;;22.30;99.90;;;;;;5035693;28;20057;-66
2023/08/21 08:58:57;;;;;;;2.70;1.00;;;22.40;99.90;;;;;;5053135;28;20497;-66
2023/08/21 09:01:23;;;;;;;1.88;0.80;;;22.50;99.90;;;;;;5035487;28;20045;-66
2023/08/21 09:03:50;;;;;;;2.17;0.80;;;22.60;99.90;;;;;;5053238;28;20045;-67
2023/08/21 09:06:15;;;;;;;2.72;0.68;;;22.70;99.90;;;;;;5053707;28;20047;-67
2023/08/21 09:08:54;;;;;;;2.38;1.10;;;22.70;99.90;;;;;;5052992;28;20041;-66
2023/08/21 09:11:20;;;;;;;2.53;1.13;;;22.70;99.90;;;;;;5053154;28;20136;-68
2023/08/21 09:13:48;;;;;;;2.72;0.80;;;22.80;99.90;;;;;;5053575;28;20429;-66
2023/08/21 09:16:16;;;;;;;1.45;0.70;;;22.90;99.90;;;;;;5052903;28;20052;-67
2023/08/21 09:18:49;;;;;;;2.45;0.80;;;23.00;99.90;;;;;;5053266;28;20053;-66
2023/08/21 09:21:19;;;;;;;1.83;0.90;;;23.00;99.90;;;;;;5053779;28;20053;-67
2023/08/21 09:23:46;;;;;;;3.53;0.90;;;23.20;99.90;;;;;;5052107;28;20141;-67
2023/08/21 09:26:20;;;;;;;2.92;1.00;;;23.30;99.90;;;;;;5052996;28;20041;-67
2023/08/21 09:28:46;;;;;;;3.97;0.77;;;23.40;99.90;;;;;;5052896;28;20041;-66
2023/08/21 09:31:11;;;;;;;3.28;1.00;;;23.50;99.90;;;;;;5055130;28;20098;-68
2023/08/21 09:33:37;;;;;;;3.47;0.90;;;23.60;99.90;;;;;;5056682;28;20103;-67
2023/08/21 09:36:04;;;;;;;1.58;1.00;;;23.50;99.90;;;;;;5055686;28;20095;-66
2023/08/21 09:38:30;;;;;;;2.05;0.90;;;23.50;99.90;;;;;;5055473;28;20114;-67
2023/08/21 09:40:56;;;;;;;2.95;0.95;;;23.50;99.90;;;;;;5056454;28;20078;-66
2023/08/21 09:43:26;;;;;;;3.35;1.10;;;23.50;99.90;;;;;;5055478;28;20055;-66
2023/08/21 09:45:55;;;;;;;2.20;0.70;;;23.50;99.90;;;;;;5056060;28;20579;-66
2023/08/21 09:48:27;;;;;;;1.58;0.68;;;23.50;99.90;;;;;;5056191;28;20045;-67
2023/08/21 09:50:54;;;;;;;1.63;0.73;;;23.60;99.90;;;;;;5038676;28;20052;-67
2023/08/21 09:53:23;;;;;;;2.65;0.88;;;23.70;99.90;;;;;;5056520;28;20091;-68
2023/08/21 09:55:54;;;;;;;2.63;1.00;;;23.90;99.90;;;;;;5056321;28;20041;-66
2023/08/21 09:58:20;;;;;;;2.15;0.77;;;24.10;99.90;;;;;;5056897;28;20124;-66
2023/08/21 10:00:48;;;;;;;1.58;0.60;;;24.30;99.90;;;;;;5056256;28;20371;-66
2023/08/21 10:03:18;;;;;;;2.13;0.63;;;24.30;99.90;;;;;;5038636;28;20045;-66
2023/08/21 10:05:45;;;;;;;2.10;0.60;;;24.30;99.90;;;;;;5056671;28;20044;-66
2023/08/21 10:08:13;;;;;;;1.52;0.70;;;24.30;99.90;;;;;;5056811;28;20040;-67
2023/08/21 10:10:38;;;;;;;3.42;0.80;;;24.40;99.90;;;;;;5056018;28;20045;-68
2023/08/21 10:13:05;;;;;;;3.08;1.08;;;24.30;99.90;;;;;;5038929;28;20048;-66
2023/08/21 10:15:34;;;;;;;2.50;0.80;;;24.40;99.90;;;;;;5055676;28;20493;-66
2023/08/21 10:18:20;;;;;;;2.55;0.80;;;24.40;99.90;;;;;;5055912;28;20048;-67
2023/08/21 10:20:47;;;;;;;1.60;0.68;;;24.50;99.90;;;;;;5055014;28;20060;-67
2023/08/21 10:23:30;;;;;;;1.83;0.70;;;24.50;99.90;;;;;;5054933;28;20044;-66
2023/08/21 10:26:00;;;;;;;2.08;0.68;;;24.50;99.90;;;;;;5055836;28;20045;-66
2023/08/21 10:28:52;;;;;;;1.95;0.70;;;24.50;99.90;;;;;;5055427;28;20049;-68
2023/08/21 10:31:33;;;;;;;1.67;0.63;;;24.50;99.90;;;;;;5041720;28;20092;-69
2023/08/21 10:34:01;;;;;;;2.92;0.70;;;24.50;99.90;;;;;;5055658;28;20056;-66
2023/08/21 10:37:03;;;;;;;1.50;0.60;;;24.40;99.90;;;;;;5038273;28;20049;-67
2023/08/21 10:39:33;;;;;;;1.27;0.52;;;24.50;99.90;;;;;;5023954;28;20536;-69
2023/08/21 10:42:04;;;;;;;1.55;0.60;;;24.50;99.90;;;;;;5055228;28;20045;-67
2023/08/21 10:44:42;;;;;;;2.35;0.52;;;24.50;99.90;;;;;;5055247;28;20045;-66
2023/08/21 10:47:26;;;;;;;1.30;0.70;;;24.60;99.90;;;;;;5055355;28;20045;-67
2023/08/21 10:49:56;;;;;;;2.70;0.57;;;24.70;99.90;;;;;;5055562;28;20063;-68
2023/08/21 10:52:23;;;;;;;2.47;0.60;;;24.80;99.90;;;;;;5037519;28;20056;-67
2023/08/21 10:54:51;;;;;;;3.40;0.65;;;24.90;99.90;;;;;;5055264;28;20175;-66
2023/08/21 10:57:17;;;;;;;1.48;0.52;;;25.00;99.90;;;;;;5055144;28;20052;-66
2023/08/21 10:59:50;;;;;;;1.35;0.50;;;25.20;99.90;;;;;;5055150;28;20500;-67
2023/08/21 11:02:17;;;;;;;2.60;0.70;;;25.40;99.90;;;;;;5055113;28;20119;-66
2023/08/21 11:04:44;;;;;;;1.77;0.70;;;25.50;99.90;;;;;;5053976;28;20486;-67
2023/08/21 11:07:10;;;;;;;3.45;0.70;;;25.50;99.90;;;;;;5054968;28;20268;-66
2023/08/21 11:09:37;;;;;;;2.00;0.60;;;25.40;99.90;;;;;;5054835;28;20044;-66
2023/08/21 11:12:13;;;;;;;1.48;0.70;;;25.30;99.90;;;;;;5055632;28;20453;-67
2023/08/21 11:14:39;;;;;;;3.50;0.75;;;25.30;99.90;;;;;;5037545;28;20060;-66
2023/08/21 11:17:05;;;;;;;2.95;0.80;;;25.50;99.90;;;;;;5054810;28;20103;-66
2023/08/21 11:19:32;;;;;;;1.90;0.80;;;25.70;99.90;;;;;;5054918;28;20139;-67
2023/08/21 11:22:03;;;;;;;2.95;1.00;;;25.80;99.90;;;;;;5036741;28;20055;-66
2023/08/21 11:24:37;;;;;;;1.95;0.70;;;25.70;99.90;;;;;;5055015;28;20055;-67
2023/08/21 11:27:04;;;;;;;2.33;0.70;;;25.50;99.90;;;;;;5037147;28;20497;-67
2023/08/21 11:29:46;;;;;;;2.00;0.75;;;25.20;99.90;;;;;;5054389;28;20048;-67
2023/08/21 11:32:14;;;;;;;1.70;0.70;;;25.20;99.90;;;;;;5055170;28;20040;-70
2023/08/21 11:34:51;;;;;;;1.92;0.80;;;25.20;99.90;;;;;;5053988;28;20501;-67
2023/08/21 11:37:41;;;;;;;2.08;0.63;;;25.20;99.90;;;;;;5054508;28;20052;-68
2023/08/21 11:40:08;;;;;;;2.50;0.80;;;25.20;99.90;;;;;;5053593;28;20053;-67
2023/08/21 11:42:34;;;;;;;2.15;0.75;;;25.10;99.90;;;;;;5054092;28;20045;-68
2023/08/21 11:45:01;;;;;;;2.42;0.70;;;25.10;99.90;;;;;;5036508;28;20049;-68
2023/08/21 11:47:32;;;;;;;2.85;1.05;;;25.00;99.90;;;;;;5054170;28;20056;-68
2023/08/21 11:50:02;;;;;;;2.25;0.60;;;24.90;99.90;;;;;;5036824;28;20052;-68
2023/08/21 11:52:31;;;;;;;4.03;1.60;;;24.80;99.90;;;;;;5054259;28;20045;-67
2023/08/21 11:54:58;;;;;;;1.67;0.55;;;24.90;99.90;;;;;;5053114;28;20049;-68
2023/08/21 11:57:24;;;;;;;1.95;0.70;;;25.00;99.90;;;;;;5054091;28;20052;-68
2023/08/21 11:59:54;;;;;;;2.33;0.70;;;25.00;99.90;;;;;;5054496;28;20398;-68
2023/08/21 12:02:25;;;;;;;1.77;0.73;;;24.90;99.90;;;;;;5054279;28;20053;-69
2023/08/21 12:05:05;;;;;;;3.30;0.80;;;24.90;99.90;;;;;;5054162;28;20045;-68
2023/08/21 12:07:32;;;;;;;3.00;0.85;;;24.90;99.90;;;;;;5053971;28;20041;-68
2023/08/21 12:09:57;;;;;;;1.90;0.80;;;25.00;99.90;;;;;;5053755;28;20049;-68
2023/08/21 12:12:23;;;;;;;1.90;0.80;;;25.00;99.90;;;;;;5053795;28;20424;-68
2023/08/21 12:14:49;;;;;;;3.33;0.93;;;25.10;99.90;;;;;;5053817;28;20041;-68
2023/08/21 12:17:15;;;;;;;2.35;0.85;;;25.10;99.90;;;;;;5053854;28;20052;-68
2023/08/21 12:19:41;;;;;;;3.17;0.82;;;25.10;99.90;;;;;;5053477;28;20049;-68
2023/08/21 12:22:08;;;;;;;2.72;0.77;;;25.10;99.90;;;;;;5053648;28;20049;-69
2023/08/21 12:24:34;;;;;;;2.90;0.90;;;25.10;99.90;;;;;;5053411;28;20055;-70
2023/08/21 12:27:00;;;;;;;2.70;0.75;;;25.20;99.90;;;;;;5054041;28;20052;-68
2023/08/21 12:29:25;;;;;;;1.90;0.90;;;25.20;99.90;;;;;;5036646;28;20124;-68
2023/08/21 12:31:51;;;;;;;2.95;0.73;;;25.00;99.90;;;;;;5035942;28;20048;-67
2023/08/21 12:34:17;;;;;;;1.67;0.70;;;25.10;99.90;;;;;;5053191;28;20053;-67
2023/08/21 12:36:42;;;;;;;2.58;0.73;;;25.30;99.90;;;;;;5053503;28;20048;-67
2023/08/21 12:39:08;;;;;;;2.05;0.90;;;25.40;99.90;;;;;;5036589;28;20041;-67
2023/08/21 12:41:34;;;;;;;2.40;0.60;;;25.50;99.90;;;;;;5036576;28;20041;-68
2023/08/21 12:44:02;;;;;;;2.25;0.77;;;25.60;99.90;;;;;;5053614;28;20071;-68
2023/08/21 12:46:29;;;;;;;2.22;1.00;;;25.70;99.90;;;;;;5052697;28;20080;-68